Time;durP1;ratioP1;P1;durP2;ratioP2;P2;SDS_P1;SDS_P2;PMS_P1;PMS_P2;Temp;Humidity;BMP_temperature;BMP_pressure;BME280_temperature;BME280_humidity;BME280_pressure;Samples;Min_cycle;Max_cycle;Signal;HPM_P1;HPM_P2
2023/12/04 00:02:00;;;;;;;19.48;12.48;;;;;;;;;;5066430;28;20246;-74
2023/12/04 00:04:28;;;;;;;17.30;12.10;;;;;;;;;;5070882;28;20217;-74
2023/12/04 00:06:54;;;;;;;21.38;13.68;;;;;;;;;;5072529;28;20228;-74
2023/12/04 00:09:20;;;;;;;19.02;12.60;;;;;;;;;;5072332;28;20200;-73
2023/12/04 00:11:47;;;;;;;25.13;15.10;;;;;;;;;;5072425;28;20265;-73
2023/12/04 00:14:14;;;;;;;21.15;14.20;;;;;;;;;;5065077;28;20307;-73
2023/12/04 00:16:40;;;;;;;25.45;15.63;;;;;;;;;;5064275;28;20214;-73
2023/12/04 00:19:07;;;;;;;24.85;15.57;;;;;;;;;;5063422;28;20270;-73
2023/12/04 00:21:35;;;;;;;25.92;15.23;;;;;;;;;;5063267;28;20267;-75
2023/12/04 00:24:01;;;;;;;22.25;14.63;;;;;;;;;;5063748;28;20295;-77
2023/12/04 00:26:27;;;;;;;23.08;14.25;;;;;;;;;;5060657;28;20235;-73
2023/12/04 00:28:53;;;;;;;21.33;14.98;;;;;;;;;;5059052;28;20277;-77
2023/12/04 00:31:20;;;;;;;23.70;14.63;;;;;;;;;;5064636;28;20297;-75
2023/12/04 00:33:55;;;;;;;24.40;14.65;;;;;;;;;;5064357;28;20449;-73
2023/12/04 00:36:21;;;;;;;23.15;14.30;;;;;;;;;;5063888;28;20586;-73
2023/12/04 00:38:50;;;;;;;20.27;13.98;;;;;;;;;;5063493;28;20219;-73
2023/12/04 00:41:16;;;;;;;23.48;14.77;;;;;;;;;;5063380;28;20212;-73
2023/12/04 00:43:43;;;;;;;20.90;14.00;;;;;;;;;;5064251;28;20307;-74
2023/12/04 00:46:09;;;;;;;23.17;13.63;;;;;;;;;;5065499;28;20243;-74
2023/12/04 00:48:35;;;;;;;21.27;13.40;;;;;;;;;;5067738;28;20632;-73
2023/12/04 00:51:01;;;;;;;22.90;13.88;;;;;;;;;;5059543;28;20212;-73
2023/12/04 00:53:28;;;;;;;18.52;12.23;;;;;;;;;;5054837;28;20277;-73
2023/12/04 00:55:55;;;;;;;20.95;12.80;;;;;;;;;;5065022;28;20318;-75
2023/12/04 00:58:22;;;;;;;17.08;12.23;;;;;;;;;;5069437;28;20962;-76
2023/12/04 01:00:50;;;;;;;18.77;12.60;;;;;;;;;;5073373;28;20235;-75
2023/12/04 01:03:16;;;;;;;17.85;12.60;;;;;;;;;;5073153;28;20226;-73
2023/12/04 01:05:43;;;;;;;17.88;12.00;;;;;;;;;;5070495;28;20220;-72
2023/12/04 01:08:09;;;;;;;20.42;12.48;;;;;;;;;;5067328;28;20288;-73
2023/12/04 01:10:35;;;;;;;19.60;12.52;;;;;;;;;;5067030;28;20212;-75
2023/12/04 01:13:03;;;;;;;21.27;13.10;;;;;;;;;;5066846;28;20237;-74
2023/12/04 01:15:29;;;;;;;16.80;11.48;;;;;;;;;;5066792;28;20235;-74
2023/12/04 01:17:55;;;;;;;21.90;11.82;;;;;;;;;;5067210;28;20680;-73
2023/12/04 01:20:22;;;;;;;19.33;12.10;;;;;;;;;;5066958;28;20592;-75
2023/12/04 01:22:49;;;;;;;16.77;11.65;;;;;;;;;;5067194;28;20413;-74
2023/12/04 01:25:15;;;;;;;16.98;12.02;;;;;;;;;;5066189;28;20224;-73
2023/12/04 01:27:42;;;;;;;17.98;12.90;;;;;;;;;;5070740;28;20228;-74
2023/12/04 01:30:10;;;;;;;19.60;12.43;;;;;;;;;;5070999;28;20212;-73
2023/12/04 01:32:37;;;;;;;17.80;11.52;;;;;;;;;;5067648;28;20228;-74
2023/12/04 01:35:03;;;;;;;18.08;11.77;;;;;;;;;;5056084;28;20232;-73
2023/12/04 01:37:29;;;;;;;21.95;13.45;;;;;;;;;;5050996;28;20201;-73
2023/12/04 01:39:56;;;;;;;22.60;14.65;;;;;;;;;;5058821;28;20189;-72
2023/12/04 01:42:22;;;;;;;21.38;14.02;;;;;;;;;;5059526;28;20253;-73
2023/12/04 01:44:48;;;;;;;21.92;14.20;;;;;;;;;;5067892;28;20274;-73
2023/12/04 01:47:16;;;;;;;22.88;14.02;;;;;;;;;;5070555;28;20236;-73
2023/12/04 01:49:43;;;;;;;23.73;14.23;;;;;;;;;;5070654;28;20287;-73
2023/12/04 01:52:09;;;;;;;20.05;13.48;;;;;;;;;;5070809;28;20205;-73
2023/12/04 01:54:36;;;;;;;19.67;13.65;;;;;;;;;;5071271;28;20323;-73
2023/12/04 01:57:03;;;;;;;18.55;12.75;;;;;;;;;;5071226;28;20204;-73
2023/12/04 01:59:29;;;;;;;21.38;13.70;;;;;;;;;;5069848;28;20843;-73
2023/12/04 02:01:55;;;;;;;20.65;13.27;;;;;;;;;;5070180;28;20232;-73
2023/12/04 02:04:23;;;;;;;18.33;12.45;;;;;;;;;;5070398;28;20239;-72
2023/12/04 02:06:49;;;;;;;20.45;12.90;;;;;;;;;;5070176;28;20200;-73
2023/12/04 02:09:16;;;;;;;20.88;12.85;;;;;;;;;;5070042;28;20272;-72
2023/12/04 02:11:42;;;;;;;21.40;13.25;;;;;;;;;;5069951;28;20201;-73
2023/12/04 02:14:09;;;;;;;19.90;13.02;;;;;;;;;;5071594;28;20280;-72
2023/12/04 02:16:38;;;;;;;19.77;13.15;;;;;;;;;;5071927;28;20240;-72
2023/12/04 02:19:06;;;;;;;20.70;14.07;;;;;;;;;;5071291;28;20204;-73
2023/12/04 02:21:33;;;;;;;20.67;13.43;;;;;;;;;;5071468;28;20281;-73
2023/12/04 02:24:01;;;;;;;24.50;15.10;;;;;;;;;;5071586;28;20204;-73
2023/12/04 02:26:29;;;;;;;20.65;13.40;;;;;;;;;;5071625;28;20255;-72
2023/12/04 02:28:58;;;;;;;22.42;14.10;;;;;;;;;;5071104;28;20351;-72
2023/12/04 02:31:25;;;;;;;23.75;14.80;;;;;;;;;;5071069;28;20200;-73
2023/12/04 02:33:53;;;;;;;26.00;16.25;;;;;;;;;;5071209;28;20261;-72
2023/12/04 02:36:20;;;;;;;29.15;16.88;;;;;;;;;;5071170;28;20236;-73
2023/12/04 02:38:47;;;;;;;29.80;17.67;;;;;;;;;;5070883;28;20669;-72
2023/12/04 02:41:16;;;;;;;28.60;16.95;;;;;;;;;;5071184;28;20201;-72
2023/12/04 02:43:43;;;;;;;27.90;16.92;;;;;;;;;;5071058;28;20691;-72
2023/12/04 02:46:09;;;;;;;28.80;18.13;;;;;;;;;;5070912;28;20240;-72
2023/12/04 02:48:35;;;;;;;29.00;17.70;;;;;;;;;;5070711;28;20642;-72
2023/12/04 02:51:02;;;;;;;27.55;18.10;;;;;;;;;;5070888;28;20200;-72
2023/12/04 02:53:29;;;;;;;28.95;17.98;;;;;;;;;;5070348;28;20563;-72
2023/12/04 02:55:55;;;;;;;29.45;17.27;;;;;;;;;;5070483;28;20227;-72
2023/12/04 02:58:25;;;;;;;32.28;18.80;;;;;;;;;;5070878;28;20211;-72
2023/12/04 03:00:52;;;;;;;26.70;16.20;;;;;;;;;;5071029;28;20291;-72
2023/12/04 03:03:18;;;;;;;28.48;17.80;;;;;;;;;;5070392;28;20659;-73
2023/12/04 03:05:44;;;;;;;31.65;18.50;;;;;;;;;;5069886;28;20724;-72
2023/12/04 03:08:10;;;;;;;27.00;16.98;;;;;;;;;;5069571;28;20570;-72
2023/12/04 03:10:37;;;;;;;28.35;17.77;;;;;;;;;;5069803;28;20295;-72
2023/12/04 03:13:03;;;;;;;28.73;16.38;;;;;;;;;;5070392;28;20208;-72
2023/12/04 03:15:30;;;;;;;27.05;16.98;;;;;;;;;;5070224;28;20258;-72
2023/12/04 03:17:59;;;;;;;29.65;18.02;;;;;;;;;;5070291;28;20196;-72
2023/12/04 03:20:25;;;;;;;29.23;17.90;;;;;;;;;;5070182;28;20212;-72
2023/12/04 03:22:51;;;;;;;30.05;18.90;;;;;;;;;;5069861;28;20227;-72
2023/12/04 03:25:17;;;;;;;26.73;17.70;;;;;;;;;;5069698;28;20297;-72
2023/12/04 03:27:44;;;;;;;27.98;17.17;;;;;;;;;;5069693;28;20232;-72
2023/12/04 03:30:10;;;;;;;27.80;18.33;;;;;;;;;;5069587;28;20231;-72
2023/12/04 03:32:38;;;;;;;26.90;16.45;;;;;;;;;;5069697;28;20240;-72
2023/12/04 03:35:04;;;;;;;28.35;16.30;;;;;;;;;;5070217;28;20270;-72
2023/12/04 03:37:30;;;;;;;25.40;16.83;;;;;;;;;;5069366;28;20200;-72
2023/12/04 03:39:57;;;;;;;26.20;16.92;;;;;;;;;;5069568;28;20555;-72
2023/12/04 03:42:23;;;;;;;26.52;17.10;;;;;;;;;;5069106;28;20204;-72
2023/12/04 03:44:49;;;;;;;27.35;17.05;;;;;;;;;;5069658;28;20721;-71
2023/12/04 03:47:15;;;;;;;27.98;17.38;;;;;;;;;;5069614;28;20681;-72
2023/12/04 03:49:43;;;;;;;30.45;18.27;;;;;;;;;;5069323;28;20602;-73
2023/12/04 03:52:09;;;;;;;25.83;17.33;;;;;;;;;;5069532;28;20613;-72
2023/12/04 03:54:36;;;;;;;29.65;17.73;;;;;;;;;;5069207;28;20228;-72
2023/12/04 03:57:02;;;;;;;27.02;17.10;;;;;;;;;;5069689;28;20204;-71
2023/12/04 03:59:28;;;;;;;29.67;17.10;;;;;;;;;;5069120;28;20680;-73
2023/12/04 04:01:54;;;;;;;25.85;17.45;;;;;;;;;;5069401;28;20223;-74
2023/12/04 04:04:21;;;;;;;29.08;17.23;;;;;;;;;;5069136;28;20201;-72
2023/12/04 04:06:48;;;;;;;28.65;17.52;;;;;;;;;;5069336;28;20200;-72
2023/12/04 04:09:15;;;;;;;28.55;16.90;;;;;;;;;;5069435;28;20228;-72
2023/12/04 04:11:42;;;;;;;27.85;17.00;;;;;;;;;;5069107;28;20304;-72
2023/12/04 04:14:08;;;;;;;30.13;17.38;;;;;;;;;;5069507;28;20212;-72
2023/12/04 04:16:34;;;;;;;28.00;16.05;;;;;;;;;;5069345;28;20289;-72
2023/12/04 04:19:01;;;;;;;26.92;15.85;;;;;;;;;;5069981;28;20204;-72
2023/12/04 04:21:27;;;;;;;23.58;16.15;;;;;;;;;;5073470;28;20273;-73
2023/12/04 04:23:54;;;;;;;28.10;17.23;;;;;;;;;;5075956;28;20614;-72
2023/12/04 04:26:21;;;;;;;23.52;16.17;;;;;;;;;;5076045;28;20311;-73
2023/12/04 04:28:47;;;;;;;24.45;16.23;;;;;;;;;;5075674;28;20288;-73
2023/12/04 04:31:13;;;;;;;27.48;16.67;;;;;;;;;;5075633;28;20815;-72
2023/12/04 04:33:39;;;;;;;23.00;15.13;;;;;;;;;;5076317;28;20852;-72
2023/12/04 04:36:06;;;;;;;24.33;15.60;;;;;;;;;;5076374;28;20896;-72
2023/12/04 04:38:32;;;;;;;24.15;15.25;;;;;;;;;;5075953;28;20219;-73
2023/12/04 04:41:00;;;;;;;23.77;15.30;;;;;;;;;;5075898;28;20257;-72
2023/12/04 04:43:26;;;;;;;23.05;14.27;;;;;;;;;;5076026;28;20668;-72
2023/12/04 04:45:52;;;;;;;23.67;14.68;;;;;;;;;;5075908;28;20357;-73
2023/12/04 04:48:19;;;;;;;23.13;14.23;;;;;;;;;;5075767;28;20227;-72
2023/12/04 04:50:46;;;;;;;23.98;14.50;;;;;;;;;;5076012;28;20207;-73
2023/12/04 04:53:12;;;;;;;21.35;13.18;;;;;;;;;;5075829;28;20747;-73
2023/12/04 04:55:38;;;;;;;23.80;14.75;;;;;;;;;;5075871;28;20220;-73
2023/12/04 04:58:06;;;;;;;21.65;14.27;;;;;;;;;;5075848;28;20203;-73
2023/12/04 05:00:32;;;;;;;21.48;14.05;;;;;;;;;;5076004;28;20609;-74
2023/12/04 05:02:58;;;;;;;21.60;14.07;;;;;;;;;;5075786;28;20212;-73
2023/12/04 05:05:24;;;;;;;20.88;13.80;;;;;;;;;;5075843;28;20224;-73
2023/12/04 05:07:51;;;;;;;21.27;14.30;;;;;;;;;;5075755;28;20208;-73
2023/12/04 05:10:17;;;;;;;25.15;14.63;;;;;;;;;;5075373;28;20649;-74
2023/12/04 05:12:43;;;;;;;25.65;15.95;;;;;;;;;;5075568;28;20615;-75
2023/12/04 05:15:11;;;;;;;25.17;15.90;;;;;;;;;;5075435;28;20628;-73
2023/12/04 05:17:37;;;;;;;21.80;14.85;;;;;;;;;;5074979;28;20204;-73
2023/12/04 05:20:04;;;;;;;23.20;14.75;;;;;;;;;;5075630;28;20200;-73
2023/12/04 05:22:30;;;;;;;21.25;13.90;;;;;;;;;;5075934;28;20262;-72
2023/12/04 05:24:57;;;;;;;21.17;13.85;;;;;;;;;;5075384;28;20247;-74
2023/12/04 05:27:23;;;;;;;20.45;13.27;;;;;;;;;;5075328;28;20260;-73
2023/12/04 05:29:49;;;;;;;19.35;12.80;;;;;;;;;;5075124;28;20625;-74
2023/12/04 05:32:17;;;;;;;18.15;12.07;;;;;;;;;;5072639;28;20661;-73
2023/12/04 05:34:43;;;;;;;19.83;13.07;;;;;;;;;;5071805;28;20224;-73
2023/12/04 05:37:09;;;;;;;22.25;13.88;;;;;;;;;;5071994;28;20253;-73
2023/12/04 05:39:35;;;;;;;19.45;13.05;;;;;;;;;;5072016;28;20200;-73
2023/12/04 05:42:03;;;;;;;18.35;12.45;;;;;;;;;;5071827;28;20203;-73
2023/12/04 05:44:29;;;;;;;22.30;13.32;;;;;;;;;;5072036;28;20223;-73
2023/12/04 05:46:55;;;;;;;23.95;13.45;;;;;;;;;;5071713;28;20262;-73
2023/12/04 05:49:23;;;;;;;19.48;13.15;;;;;;;;;;5071657;28;20244;-73
2023/12/04 05:51:49;;;;;;;21.67;13.60;;;;;;;;;;5071933;28;20204;-72
2023/12/04 05:54:15;;;;;;;20.67;14.05;;;;;;;;;;5071581;28;20204;-72
2023/12/04 05:56:42;;;;;;;24.75;14.70;;;;;;;;;;5071348;28;20593;-73
2023/12/04 05:59:08;;;;;;;24.50;14.60;;;;;;;;;;5071482;28;20219;-72
2023/12/04 06:01:35;;;;;;;21.42;14.50;;;;;;;;;;5071203;28;20319;-73
2023/12/04 06:04:01;;;;;;;25.10;15.77;;;;;;;;;;5071143;28;20201;-73
2023/12/04 06:06:29;;;;;;;26.05;15.88;;;;;;;;;;5071045;28;20236;-72
2023/12/04 06:08:55;;;;;;;23.83;16.17;;;;;;;;;;5070463;28;20624;-73
2023/12/04 06:11:21;;;;;;;26.30;16.25;;;;;;;;;;5070984;28;20227;-73
2023/12/04 06:13:48;;;;;;;22.98;14.07;;;;;;;;;;5071288;28;20623;-73
2023/12/04 06:16:14;;;;;;;22.38;14.52;;;;;;;;;;5071142;28;20231;-73
2023/12/04 06:18:40;;;;;;;22.23;13.82;;;;;;;;;;5071127;28;20261;-73
2023/12/04 06:21:07;;;;;;;20.10;13.65;;;;;;;;;;5071057;28;20205;-73
2023/12/04 06:23:35;;;;;;;20.95;13.10;;;;;;;;;;5070967;28;20208;-73
2023/12/04 06:26:02;;;;;;;23.23;13.82;;;;;;;;;;5070979;28;20705;-72
2023/12/04 06:28:28;;;;;;;22.80;13.77;;;;;;;;;;5070529;28;20702;-73
2023/12/04 06:30:55;;;;;;;24.70;13.82;;;;;;;;;;5071084;28;20204;-73
2023/12/04 06:33:21;;;;;;;19.30;12.73;;;;;;;;;;5070563;28;20667;-72
2023/12/04 06:35:48;;;;;;;21.95;13.05;;;;;;;;;;5071134;28;20930;-59
2023/12/04 06:38:16;;;;;;;26.17;14.88;;;;;;;;;;5074191;28;20212;-58
2023/12/04 06:40:43;;;;;;;21.50;14.65;;;;;;;;;;5073971;28;20208;-59
2023/12/04 06:43:10;;;;;;;22.95;14.93;;;;;;;;;;5074596;28;20528;-59
2023/12/04 06:45:36;;;;;;;24.95;14.30;;;;;;;;;;5074658;28;20225;-59
2023/12/04 06:48:03;;;;;;;21.98;14.82;;;;;;;;;;5074598;28;20208;-60
2023/12/04 06:50:29;;;;;;;22.98;14.75;;;;;;;;;;5074259;28;20274;-60
2023/12/04 06:52:55;;;;;;;23.45;14.00;;;;;;;;;;5074750;28;20208;-59
2023/12/04 06:55:22;;;;;;;20.70;13.48;;;;;;;;;;5074280;28;20228;-60
2023/12/04 06:57:49;;;;;;;22.10;14.07;;;;;;;;;;5074259;28;20205;-59
2023/12/04 07:00:16;;;;;;;24.27;14.48;;;;;;;;;;5074219;28;20204;-59
2023/12/04 07:02:42;;;;;;;20.83;13.50;;;;;;;;;;5074261;28;20200;-59
2023/12/04 07:05:09;;;;;;;21.50;13.25;;;;;;;;;;5074219;28;20286;-59
2023/12/04 07:07:35;;;;;;;22.55;14.52;;;;;;;;;;5074872;28;20200;-59
2023/12/04 07:10:01;;;;;;;23.65;14.82;;;;;;;;;;5074272;28;20285;-59
2023/12/04 07:12:27;;;;;;;20.05;13.15;;;;;;;;;;5074757;28;20294;-59
2023/12/04 07:14:55;;;;;;;29.25;14.60;;;;;;;;;;5075182;28;20224;-59
2023/12/04 07:17:22;;;;;;;22.63;13.30;;;;;;;;;;5075808;28;20234;-58
2023/12/04 07:19:48;;;;;;;20.80;12.85;;;;;;;;;;5075697;28;20196;-60
2023/12/04 07:22:14;;;;;;;22.45;14.20;;;;;;;;;;5076339;28;20196;-60
2023/12/04 07:24:40;;;;;;;24.40;14.90;;;;;;;;;;5075546;28;20251;-61
2023/12/04 07:27:07;;;;;;;29.50;14.82;;;;;;;;;;5076176;28;20212;-59
2023/12/04 07:29:33;;;;;;;25.58;13.48;;;;;;;;;;5074663;28;20262;-60
2023/12/04 07:32:01;;;;;;;21.52;13.63;;;;;;;;;;5075311;28;20254;-60
2023/12/04 07:34:28;;;;;;;19.52;12.85;;;;;;;;;;5074236;28;20197;-60
2023/12/04 07:36:54;;;;;;;21.00;12.30;;;;;;;;;;5073400;28;20256;-59
2023/12/04 07:39:20;;;;;;;21.05;12.68;;;;;;;;;;5070509;28;20200;-59
2023/12/04 07:41:47;;;;;;;19.30;12.10;;;;;;;;;;5058457;28;20197;-59
2023/12/04 07:44:13;;;;;;;18.63;11.57;;;;;;;;;;5062065;28;20653;-59
2023/12/04 07:46:39;;;;;;;19.90;12.57;;;;;;;;;;5062887;28;20261;-59
2023/12/04 07:49:07;;;;;;;21.48;13.10;;;;;;;;;;5060833;28;20221;-60
2023/12/04 07:51:33;;;;;;;22.98;12.52;;;;;;;;;;5052931;28;20280;-59
2023/12/04 07:53:59;;;;;;;18.30;12.75;;;;;;;;;;5053328;28;20604;-60
2023/12/04 07:56:26;;;;;;;21.50;14.05;;;;;;;;;;5053472;28;20221;-60
2023/12/04 07:58:52;;;;;;;21.02;13.07;;;;;;;;;;5054200;28;20208;-60
2023/12/04 08:01:18;;;;;;;24.00;13.10;;;;;;;;;;5053767;28;20216;-60
2023/12/04 08:03:44;;;;;;;21.90;12.98;;;;;;;;;;5054407;28;20205;-59
2023/12/04 08:06:12;;;;;;;19.38;12.55;;;;;;;;;;5055455;28;20274;-59
2023/12/04 08:08:39;;;;;;;20.40;12.07;;;;;;;;;;5057450;28;20205;-59
2023/12/04 08:11:05;;;;;;;17.77;12.65;;;;;;;;;;5056403;28;20236;-60
2023/12/04 08:13:31;;;;;;;19.27;11.90;;;;;;;;;;5056976;28;20307;-60
2023/12/04 08:15:57;;;;;;;18.85;12.15;;;;;;;;;;5056337;28;20221;-60
2023/12/04 08:18:24;;;;;;;17.73;11.52;;;;;;;;;;5056736;28;20201;-60
2023/12/04 08:20:50;;;;;;;17.30;12.02;;;;;;;;;;5056521;28;20244;-60
2023/12/04 08:23:18;;;;;;;23.88;14.40;;;;;;;;;;5054621;28;20254;-60
2023/12/04 08:25:45;;;;;;;19.48;12.95;;;;;;;;;;5052079;28;20316;-59
2023/12/04 08:28:11;;;;;;;22.90;13.13;;;;;;;;;;5054336;28;20253;-58
2023/12/04 08:30:39;;;;;;;18.65;11.70;;;;;;;;;;5052084;28;20225;-59
2023/12/04 08:33:06;;;;;;;22.30;14.05;;;;;;;;;;5050717;28;20232;-60
2023/12/04 08:35:32;;;;;;;21.42;13.15;;;;;;;;;;5052657;28;20224;-60
2023/12/04 08:37:58;;;;;;;25.00;12.43;;;;;;;;;;5051835;28;20259;-60
2023/12/04 08:40:26;;;;;;;19.52;12.75;;;;;;;;;;5050852;28;20339;-59
2023/12/04 08:42:53;;;;;;;19.88;12.50;;;;;;;;;;5050755;28;20276;-59
2023/12/04 08:45:19;;;;;;;24.13;13.20;;;;;;;;;;5050930;28;20255;-57
2023/12/04 08:47:45;;;;;;;19.60;11.73;;;;;;;;;;5051137;28;20229;-59
2023/12/04 08:50:12;;;;;;;15.32;11.13;;;;;;;;;;5051044;28;20235;-58
2023/12/04 08:52:41;;;;;;;17.30;11.80;;;;;;;;;;5052386;28;20216;-59
2023/12/04 08:55:08;;;;;;;19.75;12.52;;;;;;;;;;5052571;28;20225;-59
2023/12/04 08:57:35;;;;;;;21.23;13.77;;;;;;;;;;5052309;28;20232;-59
2023/12/04 09:00:03;;;;;;;22.83;13.60;;;;;;;;;;5053127;28;20224;-58
2023/12/04 09:02:30;;;;;;;21.80;13.70;;;;;;;;;;5054410;28;20205;-60
2023/12/04 09:04:56;;;;;;;21.33;13.00;;;;;;;;;;5054365;28;20225;-58
2023/12/04 09:07:23;;;;;;;24.15;14.52;;;;;;;;;;5056182;28;20205;-59
2023/12/04 09:09:49;;;;;;;20.13;13.20;;;;;;;;;;5058084;28;20293;-59
2023/12/04 09:12:15;;;;;;;20.85;13.45;;;;;;;;;;5058778;28;20201;-59
2023/12/04 09:14:43;;;;;;;23.67;14.98;;;;;;;;;;5058677;28;20224;-61
2023/12/04 09:17:09;;;;;;;26.77;15.77;;;;;;;;;;5058483;28;20197;-59
2023/12/04 09:19:35;;;;;;;23.98;13.43;;;;;;;;;;5058834;28;20700;-60
2023/12/04 09:22:01;;;;;;;22.77;13.88;;;;;;;;;;5058792;28;20247;-60
2023/12/04 09:24:28;;;;;;;22.83;14.93;;;;;;;;;;5059859;28;20212;-59
2023/12/04 09:26:55;;;;;;;23.48;14.80;;;;;;;;;;5059752;28;20201;-60
2023/12/04 09:29:23;;;;;;;22.13;14.00;;;;;;;;;;5056944;28;20236;-60
2023/12/04 09:31:51;;;;;;;20.08;13.23;;;;;;;;;;5056345;28;20209;-59
2023/12/04 09:34:17;;;;;;;23.50;13.35;;;;;;;;;;5057204;28;20205;-61
2023/12/04 09:36:44;;;;;;;21.38;14.07;;;;;;;;;;5057219;28;20197;-60
2023/12/04 09:39:10;;;;;;;20.20;13.23;;;;;;;;;;5055917;28;20205;-60
2023/12/04 09:41:37;;;;;;;24.52;14.52;;;;;;;;;;5054515;28;20209;-59
2023/12/04 09:44:03;;;;;;;22.33;14.07;;;;;;;;;;5055496;28;20205;-59
2023/12/04 09:46:30;;;;;;;25.23;14.50;;;;;;;;;;5055069;28;20275;-59
2023/12/04 09:48:58;;;;;;;25.73;14.48;;;;;;;;;;5054359;28;20610;-60
2023/12/04 09:51:25;;;;;;;25.30;14.23;;;;;;;;;;5055393;28;20221;-60
2023/12/04 09:53:52;;;;;;;21.98;13.90;;;;;;;;;;5055684;28;20231;-59
2023/12/04 09:56:18;;;;;;;24.42;15.65;;;;;;;;;;5057183;28;20274;-59
2023/12/04 09:58:45;;;;;;;20.15;13.93;;;;;;;;;;5074829;28;20196;-59
2023/12/04 10:01:12;;;;;;;27.10;14.88;;;;;;;;;;5075620;28;20200;-59
2023/12/04 10:03:38;;;;;;;21.88;13.80;;;;;;;;;;5074254;28;20207;-60
2023/12/04 10:06:06;;;;;;;23.05;14.98;;;;;;;;;;5074645;28;20220;-60
2023/12/04 10:08:32;;;;;;;20.27;13.45;;;;;;;;;;5069839;28;20635;-63
2023/12/04 10:11:00;;;;;;;24.10;14.50;;;;;;;;;;5063483;28;20255;-63
2023/12/04 10:13:27;;;;;;;23.67;14.90;;;;;;;;;;5068274;28;20204;-60
2023/12/04 10:15:53;;;;;;;28.65;15.00;;;;;;;;;;5068342;28;20220;-62
2023/12/04 10:18:27;;;;;;;23.80;14.73;;;;;;;;;;5069110;28;20280;-62
2023/12/04 10:20:54;;;;;;;23.70;15.15;;;;;;;;;;5068239;28;20211;-61
2023/12/04 10:23:22;;;;;;;25.48;14.05;;;;;;;;;;5068269;28;20752;-60
2023/12/04 10:25:49;;;;;;;22.10;13.93;;;;;;;;;;5069372;28;20229;-59
2023/12/04 10:28:15;;;;;;;22.42;13.85;;;;;;;;;;5068884;28;20255;-59
2023/12/04 10:30:42;;;;;;;22.55;14.13;;;;;;;;;;5070185;28;20258;-60
2023/12/04 10:33:08;;;;;;;21.33;13.50;;;;;;;;;;5072026;28;20220;-60
2023/12/04 10:35:36;;;;;;;22.63;13.57;;;;;;;;;;5069710;28;20489;-59
2023/12/04 10:38:03;;;;;;;21.63;13.75;;;;;;;;;;5071500;28;20239;-62
2023/12/04 10:40:32;;;;;;;21.60;12.98;;;;;;;;;;5071612;28;20208;-62
2023/12/04 10:43:10;;;;;;;21.10;13.20;;;;;;;;;;5073495;28;20197;-64
2023/12/04 10:45:37;;;;;;;20.38;12.95;;;;;;;;;;5074028;28;20325;-62
2023/12/04 10:48:04;;;;;;;19.92;13.50;;;;;;;;;;5073518;28;20323;-61
2023/12/04 10:50:32;;;;;;;20.60;13.73;;;;;;;;;;5071642;28;20287;-61
2023/12/04 10:52:58;;;;;;;19.70;13.30;;;;;;;;;;5072473;28;20212;-60
2023/12/04 10:55:25;;;;;;;17.20;12.20;;;;;;;;;;5070545;28;20647;-62
2023/12/04 10:57:54;;;;;;;19.75;12.98;;;;;;;;;;5055503;28;20229;-62
2023/12/04 11:00:21;;;;;;;19.17;12.55;;;;;;;;;;5061240;28;20251;-60
2023/12/04 11:02:49;;;;;;;17.38;11.95;;;;;;;;;;5069688;28;20588;-60
2023/12/04 11:05:17;;;;;;;19.25;13.68;;;;;;;;;;5068502;28;20231;-60
2023/12/04 11:07:47;;;;;;;20.15;12.65;;;;;;;;;;5069912;28;20296;-62
2023/12/04 11:10:13;;;;;;;20.52;13.75;;;;;;;;;;5070839;28;20292;-61
2023/12/04 11:12:40;;;;;;;19.38;13.52;;;;;;;;;;5071202;28;20689;-61
2023/12/04 11:15:10;;;;;;;23.55;13.27;;;;;;;;;;5071921;28;20259;-62
2023/12/04 11:17:37;;;;;;;18.98;12.43;;;;;;;;;;5069407;28;20200;-60
2023/12/04 11:20:08;;;;;;;22.15;14.10;;;;;;;;;;5069989;28;20208;-61
2023/12/04 11:22:37;;;;;;;19.10;12.27;;;;;;;;;;5068447;28;20212;-61
2023/12/04 11:25:05;;;;;;;19.33;12.63;;;;;;;;;;5071361;28;20235;-60
2023/12/04 11:27:32;;;;;;;25.58;12.95;;;;;;;;;;5071259;28;20809;-60
2023/12/04 11:29:58;;;;;;;26.92;12.93;;;;;;;;;;5070861;28;20220;-58
2023/12/04 11:32:29;;;;;;;25.08;13.48;;;;;;;;;;5071998;28;20480;-59
2023/12/04 11:34:56;;;;;;;19.33;12.32;;;;;;;;;;5070796;28;20679;-60
2023/12/04 11:37:23;;;;;;;23.40;14.02;;;;;;;;;;5070738;28;20250;-60
2023/12/04 11:39:50;;;;;;;21.98;13.27;;;;;;;;;;5072495;28;20621;-59
2023/12/04 11:42:19;;;;;;;19.38;12.77;;;;;;;;;;5073781;28;20433;-61
2023/12/04 11:44:48;;;;;;;16.42;12.25;;;;;;;;;;5070858;28;20224;-60
2023/12/04 11:47:14;;;;;;;21.60;12.93;;;;;;;;;;5070629;28;20683;-59
2023/12/04 11:49:42;;;;;;;18.83;13.00;;;;;;;;;;5070244;28;20215;-61
2023/12/04 11:52:09;;;;;;;18.10;12.70;;;;;;;;;;5069585;28;20220;-61
2023/12/04 11:54:58;;;;;;;18.20;13.43;;;;;;;;;;5073253;28;20600;-59
2023/12/04 11:57:25;;;;;;;17.58;13.07;;;;;;;;;;5072348;28;20232;-60
2023/12/04 11:59:52;;;;;;;21.77;13.23;;;;;;;;;;5073119;28;20660;-60
2023/12/04 12:02:18;;;;;;;17.70;12.65;;;;;;;;;;5073063;28;20200;-60
2023/12/04 12:04:46;;;;;;;22.38;13.07;;;;;;;;;;5073582;28;20223;-60
2023/12/04 12:07:12;;;;;;;21.45;12.40;;;;;;;;;;5073308;28;20212;-60
2023/12/04 12:09:39;;;;;;;16.67;12.98;;;;;;;;;;5072785;28;20196;-59
2023/12/04 12:12:05;;;;;;;20.17;13.40;;;;;;;;;;5073254;28;20227;-60
2023/12/04 12:14:32;;;;;;;24.60;14.63;;;;;;;;;;5073018;28;20204;-60
2023/12/04 12:16:59;;;;;;;20.58;13.32;;;;;;;;;;5073821;28;20672;-60
2023/12/04 12:19:26;;;;;;;22.60;13.65;;;;;;;;;;5074767;28;20291;-59
2023/12/04 12:21:53;;;;;;;21.83;13.48;;;;;;;;;;5073734;28;20279;-60
2023/12/04 12:24:20;;;;;;;23.20;14.30;;;;;;;;;;5073605;28;20224;-60
2023/12/04 12:26:46;;;;;;;23.70;13.77;;;;;;;;;;5071914;28;20281;-60
2023/12/04 12:29:13;;;;;;;21.98;14.73;;;;;;;;;;5071800;28;20231;-59
2023/12/04 12:31:39;;;;;;;20.88;14.50;;;;;;;;;;5072564;28;20216;-59
2023/12/04 12:34:06;;;;;;;24.02;16.67;;;;;;;;;;5072327;28;20196;-59
2023/12/04 12:36:32;;;;;;;20.13;14.55;;;;;;;;;;5072202;28;20282;-60
2023/12/04 12:39:00;;;;;;;18.52;13.07;;;;;;;;;;5071949;28;20549;-59
2023/12/04 12:41:26;;;;;;;22.38;13.85;;;;;;;;;;5072092;28;20218;-59
2023/12/04 12:43:53;;;;;;;25.77;15.02;;;;;;;;;;5075890;28;20261;-60
2023/12/04 12:46:19;;;;;;;20.25;13.10;;;;;;;;;;5076482;28;20330;-60
2023/12/04 12:48:45;;;;;;;21.02;13.77;;;;;;;;;;5076185;28;20615;-59
2023/12/04 12:51:13;;;;;;;23.58;14.32;;;;;;;;;;5076213;28;20718;-60
2023/12/04 12:53:40;;;;;;;21.05;14.98;;;;;;;;;;5076877;28;20277;-59
2023/12/04 12:56:09;;;;;;;26.95;15.38;;;;;;;;;;5076600;28;20224;-59
2023/12/04 12:58:35;;;;;;;31.70;15.50;;;;;;;;;;5077010;28;20220;-60
2023/12/04 13:01:02;;;;;;;23.77;15.43;;;;;;;;;;5076494;28;20219;-61
2023/12/04 13:03:28;;;;;;;25.90;15.95;;;;;;;;;;5076825;28;20212;-59
2023/12/04 13:05:55;;;;;;;27.17;15.40;;;;;;;;;;5076331;28;20231;-59
2023/12/04 13:08:21;;;;;;;26.08;15.65;;;;;;;;;;5076461;28;20295;-61
2023/12/04 13:10:47;;;;;;;26.23;16.25;;;;;;;;;;5075969;28;20271;-59
2023/12/04 13:13:15;;;;;;;27.25;16.75;;;;;;;;;;5076479;28;20231;-59
2023/12/04 13:15:42;;;;;;;26.80;16.55;;;;;;;;;;5076068;28;20252;-59
2023/12/04 13:18:08;;;;;;;28.77;17.85;;;;;;;;;;5076822;28;20205;-59
2023/12/04 13:20:35;;;;;;;32.03;17.95;;;;;;;;;;5076991;28;20200;-60
2023/12/04 13:23:01;;;;;;;30.02;17.05;;;;;;;;;;5077094;28;20680;-59
2023/12/04 13:25:28;;;;;;;27.95;17.40;;;;;;;;;;5076912;28;20224;-60
2023/12/04 13:27:54;;;;;;;28.77;17.73;;;;;;;;;;5076689;28;20699;-60
2023/12/04 13:30:22;;;;;;;29.77;17.70;;;;;;;;;;5076689;28;20207;-59
2023/12/04 13:32:50;;;;;;;33.45;17.67;;;;;;;;;;5076316;28;20269;-59
2023/12/04 13:35:16;;;;;;;70.55;27.05;;;;;;;;;;5077112;28;20270;-59
2023/12/04 13:37:43;;;;;;;64.45;26.83;;;;;;;;;;5076674;28;20200;-58
2023/12/04 13:40:15;;;;;;;47.45;22.65;;;;;;;;;;5076599;28;20196;-59
2023/12/04 13:45:26;;;;;;;27.73;17.63;;;;;;;;;;5077335;28;20234;-59
2023/12/04 13:47:53;;;;;;;32.08;19.05;;;;;;;;;;5076767;28;20208;-59
2023/12/04 13:50:20;;;;;;;30.83;17.95;;;;;;;;;;5076154;28;20232;-59
2023/12/04 13:52:55;;;;;;;31.30;17.75;;;;;;;;;;5075909;28;20216;-60
2023/12/04 13:55:31;;;;;;;30.27;16.80;;;;;;;;;;5075832;28;20265;-59
2023/12/04 13:58:09;;;;;;;27.88;17.10;;;;;;;;;;5076106;28;20247;-59
2023/12/04 14:00:37;;;;;;;28.17;16.08;;;;;;;;;;5076293;28;20261;-59
2023/12/04 14:03:04;;;;;;;25.58;16.17;;;;;;;;;;5075844;28;20247;-59
2023/12/04 14:05:30;;;;;;;29.98;17.55;;;;;;;;;;5075450;28;20259;-59
2023/12/04 14:07:58;;;;;;;29.83;17.13;;;;;;;;;;5075236;28;20201;-58
2023/12/04 14:10:25;;;;;;;57.20;25.23;;;;;;;;;;5075499;28;20222;-58
2023/12/04 14:12:51;;;;;;;35.20;18.42;;;;;;;;;;5075747;28;20628;-59
2023/12/04 14:15:18;;;;;;;60.20;26.52;;;;;;;;;;5075631;28;20288;-60
2023/12/04 14:17:46;;;;;;;77.90;30.10;;;;;;;;;;5075747;28;20219;-61